Terminal Aerodrome Forecast
Issued by NWS Austin/San Antonio, TX

Home | Current Version | Previous Version | Text Only | Print | Product List | Glossary On
Versions: 1 2 3 4 5 6 7 8 9 10 11 12 13 14 15 16 17 18 19 20 21 22 23 24 25 26 27 28
000
FTUS44 KEWX 190700 AAB
TAFSAT
TAF AMD
KSAT 190706Z 1907/2012 VRB03KT P6SM FEW009 BKN150
     FM191000 10005KT P6SM BKN009
     FM191700 13007KT P6SM BKN030
      TEMPO 1919/1923 3SM TSRA BKN030CB
     FM200000 11005KT P6SM BKN025
     FM200400 VRB03KT P6SM BKN015=

USA.gov is the U.S. government's official web portal to all federal, state and local government web resources and services.